Time;durP1;ratioP1;P1;durP2;ratioP2;P2;SDS_P1;SDS_P2;PMS_P1;PMS_P2;Temp;Humidity;BMP_temperature;BMP_pressure;BME280_temperature;BME280_humidity;BME280_pressure;Samples;Min_cycle;Max_cycle;Signal;HPM_P1;HPM_P2
2021/05/01 00:02:19;;;;;;;41.00;20.30;;;5.90;99.90;;;;;;5026761;28;19943;-53
2021/05/01 00:04:45;;;;;;;;;;;5.90;99.90;;;;;;5027196;28;20524;-53
2021/05/01 00:07:10;;;;;;;41.35;21.20;;;5.80;99.90;;;;;;5024920;28;19917;-51
2021/05/01 00:09:36;;;;;;;;;;;5.80;99.90;;;;;;5026720;28;20096;-49
2021/05/01 00:12:01;;;;;;;43.72;23.13;;;5.80;99.90;;;;;;5027120;28;19917;-48
2021/05/01 00:14:27;;;;;;;;;;;5.80;99.90;;;;;;5027913;28;20785;-54
2021/05/01 00:16:53;;;;;;;42.72;21.45;;;5.80;99.90;;;;;;5026750;28;19936;-51
2021/05/01 00:19:19;;;;;;;36.97;22.17;;;5.80;99.90;;;;;;5027489;28;20421;-50
2021/05/01 00:21:45;;;;;;;;;;;5.80;99.90;;;;;;5023805;28;20556;-54
2021/05/01 00:24:11;;;;;;;39.47;21.38;;;5.80;99.90;;;;;;5025858;28;19979;-55
2021/05/01 00:26:36;;;;;;;36.92;21.60;;;5.80;99.90;;;;;;5026972;28;20045;-55
2021/05/01 00:29:02;;;;;;;;;;;5.80;99.90;;;;;;5028125;28;20033;-55
2021/05/01 00:31:29;;;;;;;34.35;20.08;;;5.80;99.90;;;;;;5026851;28;19968;-57
2021/05/01 00:33:55;;;;;;;41.20;23.02;;;5.80;99.90;;;;;;5026303;28;20112;-50
2021/05/01 00:36:20;;;;;;;;;;;5.80;99.90;;;;;;5026598;28;20132;-54
2021/05/01 00:38:46;;;;;;;37.65;21.95;;;5.70;99.90;;;;;;5026665;28;19963;-54
2021/05/01 00:41:11;;;;;;;;;;;5.70;99.90;;;;;;5027707;28;20091;-54
2021/05/01 00:43:41;;;;;;;38.53;20.67;;;5.70;99.90;;;;;;5026396;28;19931;-53
2021/05/01 00:46:08;;;;;;;41.67;23.55;;;5.70;99.90;;;;;;5025797;28;20053;-49
2021/05/01 00:48:33;;;;;;;41.58;22.85;;;5.70;99.90;;;;;;5026900;28;20095;-53
2021/05/01 00:50:59;;;;;;;;;;;5.70;99.90;;;;;;5025355;28;20037;-53
2021/05/01 00:53:26;;;;;;;39.08;21.70;;;5.60;99.90;;;;;;5025384;28;19957;-49
2021/05/01 00:55:52;;;;;;;34.58;19.65;;;5.60;99.90;;;;;;5025453;28;20473;-54
2021/05/01 00:58:18;;;;;;;37.53;19.85;;;5.60;99.90;;;;;;5026567;28;20037;-54
2021/05/01 01:03:27;;;;;;;37.97;20.65;;;5.60;99.90;;;;;;5025975;28;20422;-50
2021/05/01 01:05:53;;;;;;;;;;;5.60;99.90;;;;;;5026955;28;20049;-54
2021/05/01 01:08:18;;;;;;;35.22;20.10;;;5.50;99.90;;;;;;5027124;28;20035;-56
2021/05/01 01:10:44;;;;;;;;;;;5.50;99.90;;;;;;5028035;28;20558;-51
2021/05/01 01:13:10;;;;;;;38.05;21.58;;;5.60;99.90;;;;;;5026832;28;19917;-52
2021/05/01 01:15:35;;;;;;;38.13;20.23;;;5.60;99.90;;;;;;5025017;28;20037;-52
2021/05/01 01:18:01;;;;;;;;;;;5.50;99.90;;;;;;5027373;28;20512;-50
2021/05/01 01:20:27;;;;;;;38.08;20.90;;;5.40;99.90;;;;;;5024950;28;19996;-48
2021/05/01 01:22:53;;;;;;;;;;;5.40;99.90;;;;;;5027214;28;20041;-56
2021/05/01 01:25:19;;;;;;;33.95;19.38;;;5.50;99.90;;;;;;5026423;28;19925;-53
2021/05/01 01:27:46;;;;;;;37.67;21.23;;;5.50;99.90;;;;;;5027018;28;20029;-51
2021/05/01 01:30:13;;;;;;;36.78;21.75;;;5.50;99.90;;;;;;5025612;28;20115;-52
2021/05/01 01:32:40;;;;;;;37.28;21.23;;;5.50;99.90;;;;;;5026692;28;20056;-52
2021/05/01 01:35:08;;;;;;;42.92;23.52;;;5.50;99.90;;;;;;5026353;28;20041;-52
2021/05/01 01:37:35;;;;;;;44.55;23.63;;;5.60;99.90;;;;;;5025749;28;20052;-55
2021/05/01 01:40:00;;;;;;;38.70;22.48;;;5.60;99.90;;;;;;5026720;28;20034;-53
2021/05/01 01:42:26;;;;;;;;;;;5.60;99.90;;;;;;5026380;28;20048;-50
2021/05/01 01:44:52;;;;;;;41.55;23.52;;;5.60;99.90;;;;;;5025574;28;20031;-51
2021/05/01 01:47:17;;;;;;;39.38;21.85;;;5.60;99.90;;;;;;5023421;28;20120;-50
2021/05/01 01:49:43;;;;;;;;;;;5.60;99.90;;;;;;5027162;28;20055;-54
2021/05/01 01:52:08;;;;;;;39.13;21.83;;;5.60;99.90;;;;;;5026046;28;20277;-53
2021/05/01 01:54:34;;;;;;;40.25;22.63;;;5.60;99.90;;;;;;5025116;28;20029;-54
2021/05/01 01:57:00;;;;;;;;;;;5.60;99.90;;;;;;5027406;28;20065;-51
2021/05/01 01:59:27;;;;;;;36.47;20.73;;;5.60;99.90;;;;;;5024618;28;20337;-53
2021/05/01 02:01:52;;;;;;;41.25;21.55;;;5.70;99.90;;;;;;5024992;28;20595;-53
2021/05/01 02:04:18;;;;;;;;;;;5.70;99.90;;;;;;5026571;28;20045;-52
2021/05/01 02:06:44;;;;;;;35.85;20.75;;;5.70;99.90;;;;;;5025796;28;19968;-56
2021/05/01 02:09:10;;;;;;;35.33;20.75;;;5.70;99.90;;;;;;5026253;28;20060;-50
2021/05/01 02:11:35;;;;;;;;;;;5.70;99.90;;;;;;5025720;28;20489;-52
2021/05/01 02:14:02;;;;;;;35.20;19.88;;;5.70;99.90;;;;;;5025133;28;19989;-55
2021/05/01 02:16:28;;;;;;;43.78;22.52;;;5.70;99.90;;;;;;5025209;28;20056;-55
2021/05/01 02:18:53;;;;;;;;;;;5.70;99.90;;;;;;5026047;28;20068;-50
2021/05/01 02:21:18;;;;;;;38.75;21.17;;;5.70;99.90;;;;;;5023789;28;20127;-54
2021/05/01 02:23:44;;;;;;;;;;;5.80;99.90;;;;;;5025237;28;20041;-53
2021/05/01 02:26:10;;;;;;;34.13;20.50;;;5.70;99.90;;;;;;5025734;28;19925;-50
2021/05/01 02:28:35;;;;;;;34.17;19.55;;;5.80;99.90;;;;;;5024935;28;20091;-54
2021/05/01 02:31:00;;;;;;;;;;;5.80;99.90;;;;;;5025011;28;20785;-50
2021/05/01 02:33:28;;;;;;;33.55;19.33;;;5.80;99.90;;;;;;5025080;28;19921;-54
2021/05/01 02:35:53;;;;;;;35.90;19.60;;;5.80;99.90;;;;;;5024841;28;20049;-55
2021/05/01 02:38:19;;;;;;;;;;;5.80;99.90;;;;;;5024584;28;20045;-51
2021/05/01 02:40:44;;;;;;;35.60;19.15;;;5.80;99.90;;;;;;5024091;28;20002;-49
2021/05/01 02:43:10;;;;;;;;;;;5.80;99.90;;;;;;5026170;28;20042;-56
2021/05/01 02:45:36;;;;;;;37.63;20.50;;;5.90;99.90;;;;;;5024362;28;19928;-51
2021/05/01 02:48:03;;;;;;;;;;;5.90;99.90;;;;;;5026053;28;20127;-52
2021/05/01 02:50:29;;;;;;;33.60;18.48;;;5.90;99.90;;;;;;5025575;28;19999;-53
2021/05/01 02:52:54;;;;;;;;;;;5.90;99.90;;;;;;5024575;28;20038;-50
2021/05/01 02:55:20;;;;;;;36.50;20.67;;;6.00;99.90;;;;;;5022160;28;19921;-52
2021/05/01 02:57:47;;;;;;;;;;;6.00;99.90;;;;;;5026110;28;20068;-51
2021/05/01 03:00:14;;;;;;;;;;;6.00;99.90;;;;;;5025379;28;20012;-52
2021/05/01 03:02:40;;;;;;;;;;;6.00;99.90;;;;;;5024033;28;19917;-53
2021/05/01 03:05:07;;;;;;;38.10;20.77;;;6.00;99.90;;;;;;5024507;28;19924;-52
2021/05/01 03:07:33;;;;;;;37.00;21.00;;;6.00;99.90;;;;;;5025482;28;20128;-55
2021/05/01 03:09:58;;;;;;;;;;;6.00;99.90;;;;;;5025964;28;20132;-53
2021/05/01 03:12:24;;;;;;;41.85;21.88;;;6.00;99.90;;;;;;5025331;28;19927;-53
2021/05/01 03:14:49;;;;;;;;;;;6.00;99.90;;;;;;5025035;28;20057;-48
2021/05/01 03:17:15;;;;;;;34.25;20.48;;;6.00;99.90;;;;;;5024482;28;19921;-51
2021/05/01 03:19:41;;;;;;;;;;;6.00;99.90;;;;;;5026160;28;20951;-52
2021/05/01 03:22:07;;;;;;;40.30;20.90;;;6.00;99.90;;;;;;5023400;28;19948;-54
2021/05/01 03:24:33;;;;;;;48.50;23.48;;;6.00;99.90;;;;;;5028333;28;20103;-53
2021/05/01 03:26:59;;;;;;;45.22;23.02;;;6.00;99.90;;;;;;5029094;28;20427;-53
2021/05/01 03:29:24;;;;;;;;;;;6.00;99.90;;;;;;5029586;28;20046;-56
2021/05/01 03:31:50;;;;;;;37.95;21.02;;;6.00;99.90;;;;;;5028305;28;19921;-56
2021/05/01 03:34:16;;;;;;;;;;;6.00;99.90;;;;;;5028926;28;20037;-53
2021/05/01 03:36:41;;;;;;;38.50;21.25;;;6.00;99.90;;;;;;5028938;28;19931;-57
2021/05/01 03:39:07;;;;;;;;;;;6.00;99.90;;;;;;5029017;28;20241;-50
2021/05/01 03:41:33;;;;;;;38.83;22.05;;;6.00;99.90;;;;;;5028720;28;19967;-55
2021/05/01 03:43:58;;;;;;;38.85;23.17;;;6.00;99.90;;;;;;5028998;28;20509;-49
2021/05/01 03:46:24;;;;;;;;;;;6.00;99.90;;;;;;5029579;28;20049;-54
2021/05/01 03:48:50;;;;;;;41.60;22.77;;;6.00;99.90;;;;;;5028990;28;19917;-54
2021/05/01 03:51:15;;;;;;;38.58;21.58;;;5.90;99.90;;;;;;5029583;28;20042;-54
2021/05/01 03:53:41;;;;;;;;;;;6.00;99.90;;;;;;5028828;28;20046;-53
2021/05/01 03:56:06;;;;;;;36.65;21.02;;;6.00;99.90;;;;;;5028252;28;20320;-55
2021/05/01 03:58:32;;;;;;;;;;;6.00;99.90;;;;;;5029609;28;20046;-55
2021/05/01 04:00:57;;;;;;;39.53;21.60;;;5.90;99.90;;;;;;5029157;28;19917;-54
2021/05/01 04:03:23;;;;;;;;;;;6.00;99.90;;;;;;5028605;28;20042;-52
2021/05/01 04:05:48;;;;;;;41.75;20.50;;;6.00;99.90;;;;;;5027638;28;19932;-56
2021/05/01 04:08:15;;;;;;;52.42;23.75;;;6.00;99.90;;;;;;5026581;28;20075;-56
2021/05/01 04:10:40;;;;;;;46.53;24.85;;;6.00;99.90;;;;;;5026790;28;20522;-52
2021/05/01 04:13:06;;;;;;;;;;;5.90;99.90;;;;;;5028774;28;20052;-53
2021/05/01 04:15:31;;;;;;;42.35;22.35;;;5.90;99.90;;;;;;5027408;28;19917;-53
2021/05/01 04:17:57;;;;;;;;;;;6.00;99.90;;;;;;5028884;28;20045;-48
2021/05/01 04:20:23;;;;;;;42.33;24.00;;;6.00;99.90;;;;;;5028360;28;19917;-55
2021/05/01 04:22:48;;;;;;;;;;;6.00;99.90;;;;;;5027720;28;21018;-53
2021/05/01 04:25:14;;;;;;;39.75;21.63;;;6.10;99.90;;;;;;5024149;28;20351;-55
2021/05/01 04:27:40;;;;;;;;;;;6.20;99.90;;;;;;5025781;28;20091;-52
2021/05/01 04:30:08;;;;;;;41.10;23.00;;;6.20;99.90;;;;;;5024777;28;19921;-53
2021/05/01 04:32:34;;;;;;;41.38;23.63;;;6.20;99.90;;;;;;5028018;28;20038;-50
2021/05/01 04:35:00;;;;;;;42.53;23.20;;;6.20;99.90;;;;;;5026966;28;20045;-51
2021/05/01 04:37:25;;;;;;;;;;;6.20;99.90;;;;;;5028776;28;20626;-53
2021/05/01 04:39:51;;;;;;;35.97;21.27;;;6.30;99.90;;;;;;5028039;28;19921;-54
2021/05/01 04:42:17;;;;;;;;;;;6.20;99.90;;;;;;5027879;28;20038;-54
2021/05/01 04:44:43;;;;;;;35.42;20.42;;;6.20;99.90;;;;;;5026885;28;20365;-53
2021/05/01 04:47:08;;;;;;;;;;;6.30;99.90;;;;;;5025917;28;20065;-55
2021/05/01 04:49:34;;;;;;;34.88;20.35;;;6.30;99.90;;;;;;5026290;28;19917;-52
2021/05/01 04:52:01;;;;;;;38.10;21.55;;;6.30;99.90;;;;;;5025334;28;20122;-49
2021/05/01 04:54:27;;;;;;;40.17;22.10;;;6.30;99.90;;;;;;5025140;28;20048;-54
2021/05/01 04:56:53;;;;;;;;;;;6.40;99.90;;;;;;5028501;28;20049;-56
2021/05/01 04:59:18;;;;;;;39.58;21.58;;;6.40;99.90;;;;;;5025465;28;19921;-52
2021/05/01 05:01:44;;;;;;;42.17;23.73;;;6.40;99.90;;;;;;5026604;28;20137;-54
2021/05/01 05:04:09;;;;;;;36.67;23.35;;;6.40;99.90;;;;;;5026856;28;20703;-55
2021/05/01 05:06:35;;;;;;;48.45;25.02;;;6.40;99.90;;;;;;5027327;28;20041;-54
2021/05/01 05:09:02;;;;;;;;;;;6.50;99.90;;;;;;5027733;28;20084;-52
2021/05/01 05:11:28;;;;;;;46.33;24.35;;;6.50;99.90;;;;;;5026974;28;19939;-55
2021/05/01 05:13:53;;;;;;;45.35;25.33;;;6.50;99.90;;;;;;5027580;28;21287;-55
2021/05/01 05:16:20;;;;;;;;;;;6.60;99.90;;;;;;5026641;28;20143;-55
2021/05/01 05:18:45;;;;;;;46.47;24.55;;;6.60;99.90;;;;;;5027607;28;20288;-51
2021/05/01 05:21:11;;;;;;;;;;;6.60;99.90;;;;;;5025386;28;20037;-55
2021/05/01 05:23:37;;;;;;;46.58;24.90;;;6.60;99.90;;;;;;5026783;28;19924;-54
2021/05/01 05:26:02;;;;;;;;;;;6.60;99.90;;;;;;5022762;28;20037;-53
2021/05/01 05:28:28;;;;;;;48.05;24.73;;;6.60;99.90;;;;;;5027966;28;19917;-57
2021/05/01 05:30:54;;;;;;;47.00;26.30;;;6.60;99.90;;;;;;5027548;28;20111;-52
2021/05/01 05:33:19;;;;;;;;;;;6.60;99.90;;;;;;5026907;28;20046;-56
2021/05/01 05:35:45;;;;;;;44.25;24.83;;;6.60;99.90;;;;;;5027542;28;19924;-61
2021/05/01 05:38:10;;;;;;;;;;;6.70;99.90;;;;;;5026251;28;20038;-55
2021/05/01 05:40:39;;;;;;;47.00;26.65;;;6.70;99.90;;;;;;5026849;28;19924;-53
2021/05/01 05:43:05;;;;;;;58.97;29.10;;;6.60;99.90;;;;;;5026369;28;20038;-54
2021/05/01 05:45:31;;;;;;;;;;;6.60;99.90;;;;;;5025423;28;20266;-54
2021/05/01 05:47:57;;;;;;;49.97;27.27;;;6.60;99.90;;;;;;5027141;28;19921;-51
2021/05/01 05:50:23;;;;;;;;;;;6.60;99.90;;;;;;5025131;28;20405;-53
2021/05/01 05:52:49;;;;;;;50.08;27.13;;;6.60;99.90;;;;;;5026403;28;19921;-52
2021/05/01 05:55:15;;;;;;;;;;;6.70;99.90;;;;;;5026860;28;20517;-55
2021/05/01 05:57:48;;;;;;;53.92;29.35;;;6.70;99.90;;;;;;5025058;28;19928;-53
2021/05/01 06:00:14;;;;;;;52.47;27.92;;;6.80;99.90;;;;;;5024809;28;20030;-54
2021/05/01 06:02:42;;;;;;;50.45;28.90;;;6.80;99.90;;;;;;5022707;28;20048;-54
2021/05/01 06:05:18;;;;;;;54.45;29.73;;;6.90;99.90;;;;;;5025684;28;20638;-53
2021/05/01 06:07:48;;;;;;;52.42;29.65;;;6.80;99.90;;;;;;5026000;28;20069;-56
2021/05/01 06:10:15;;;;;;;52.53;28.65;;;6.80;99.90;;;;;;5025961;28;20770;-55
2021/05/01 06:12:42;;;;;;;52.03;28.67;;;6.80;99.90;;;;;;5025114;28;20045;-54
2021/05/01 06:15:14;;;;;;;47.47;26.77;;;6.80;99.90;;;;;;5024996;28;20071;-54
2021/05/01 06:17:40;;;;;;;50.55;27.77;;;6.80;99.90;;;;;;5024416;28;20061;-53
2021/05/01 06:20:10;;;;;;;47.72;27.85;;;6.70;99.90;;;;;;5026104;28;20458;-53
2021/05/01 06:22:36;;;;;;;51.20;27.20;;;6.80;99.90;;;;;;5024859;28;20037;-55
2021/05/01 06:25:04;;;;;;;;;;;6.90;99.90;;;;;;5025401;28;20489;-55
2021/05/01 06:27:29;;;;;;;46.85;26.48;;;6.90;99.90;;;;;;5024197;28;19932;-56
2021/05/01 06:29:55;;;;;;;;;;;7.00;99.90;;;;;;5027166;28;20370;-56
2021/05/01 06:32:21;;;;;;;51.33;27.92;;;7.00;99.90;;;;;;5024741;28;19917;-58
2021/05/01 06:34:49;;;;;;;54.70;30.48;;;7.00;99.90;;;;;;5025203;28;20107;-52
2021/05/01 06:37:16;;;;;;;51.30;29.17;;;7.00;99.90;;;;;;5026623;28;20037;-53
2021/05/01 06:39:46;;;;;;;54.90;28.75;;;7.00;99.90;;;;;;5025093;28;20053;-60
2021/05/01 06:42:34;;;;;;;66.07;33.15;;;7.00;99.90;;;;;;5021533;28;20052;-49
2021/05/01 06:45:19;;;;;;;59.15;32.08;;;6.90;99.90;;;;;;5023917;28;20562;-58
2021/05/01 06:47:50;;;;;;;67.13;34.88;;;6.90;99.90;;;;;;5026882;28;20497;-59
2021/05/01 06:50:16;;;;;;;60.72;33.42;;;6.70;99.90;;;;;;5028420;28;20092;-57
2021/05/01 06:52:43;;;;;;;;;;;6.70;99.90;;;;;;5025135;28;20513;-60
2021/05/01 06:55:12;;;;;;;58.33;32.05;;;6.80;99.90;;;;;;5024371;28;19921;-56
2021/05/01 06:57:42;;;;;;;69.05;36.55;;;6.80;99.90;;;;;;5024062;28;20176;-57
2021/05/01 07:00:08;;;;;;;64.45;34.33;;;6.80;99.90;;;;;;5027069;28;20047;-59
2021/05/01 07:02:41;;;;;;;71.07;36.22;;;6.70;99.90;;;;;;5027628;28;20120;-57
2021/05/01 07:05:09;;;;;;;60.03;33.92;;;6.70;99.90;;;;;;5026264;28;20033;-59
2021/05/01 07:07:35;;;;;;;64.57;34.05;;;6.70;99.90;;;;;;5026403;28;20060;-61
2021/05/01 07:10:05;;;;;;;;;;;6.80;99.90;;;;;;5026925;28;20033;-56
2021/05/01 07:12:32;;;;;;;58.58;32.55;;;6.80;99.90;;;;;;5026203;28;19944;-56
2021/05/01 07:15:02;;;;;;;56.78;32.78;;;6.90;99.90;;;;;;5024752;28;20052;-56
2021/05/01 07:17:27;;;;;;;59.03;34.00;;;7.10;99.90;;;;;;5004664;28;20045;-53
2021/05/01 07:19:54;;;;;;;;;;;7.30;99.90;;;;;;5005866;28;20034;-56
2021/05/01 07:22:20;;;;;;;79.40;41.88;;;7.40;99.90;;;;;;5005247;28;20004;-51
2021/05/01 07:24:45;;;;;;;;;;;7.50;99.90;;;;;;5005077;28;20168;-54
2021/05/01 07:27:11;;;;;;;67.93;37.92;;;7.60;99.90;;;;;;5005782;28;20016;-55
2021/05/01 07:29:39;;;;;;;65.95;36.53;;;7.60;99.90;;;;;;5005155;28;20165;-51
2021/05/01 07:32:07;;;;;;;62.42;36.17;;;7.90;99.90;;;;;;5003861;28;20049;-51
2021/05/01 07:34:34;;;;;;;62.10;36.15;;;8.50;99.90;;;;;;5005069;28;20038;-56
2021/05/01 07:37:13;;;;;;;70.40;38.08;;;9.00;99.90;;;;;;5003860;28;20049;-55
2021/05/01 07:39:40;;;;;;;71.75;38.40;;;9.10;99.90;;;;;;5005919;28;20046;-53
2021/05/01 07:42:07;;;;;;;71.35;40.28;;;8.90;99.90;;;;;;5005230;28;20573;-56
2021/05/01 07:44:33;;;;;;;74.03;39.90;;;8.60;99.90;;;;;;5003212;28;20049;-57
2021/05/01 07:47:00;;;;;;;;;;;8.40;99.90;;;;;;5004402;28;20050;-57
2021/05/01 07:49:26;;;;;;;71.75;40.28;;;8.40;99.90;;;;;;5005217;28;19980;-51
2021/05/01 07:51:53;;;;;;;65.45;36.83;;;8.40;99.90;;;;;;5003801;28;20046;-51
2021/05/01 07:54:19;;;;;;;69.70;38.72;;;8.40;99.90;;;;;;5004734;28;20046;-54
2021/05/01 07:56:45;;;;;;;65.65;37.97;;;8.40;99.90;;;;;;5005186;28;20041;-54
2021/05/01 07:59:10;;;;;;;;;;;8.50;99.90;;;;;;5004974;28;20038;-51
2021/05/01 08:01:36;;;;;;;62.38;35.55;;;8.30;99.90;;;;;;5003078;28;19946;-51
2021/05/01 08:04:03;;;;;;;70.57;39.65;;;8.40;99.90;;;;;;5003715;28;20046;-51
2021/05/01 08:06:29;;;;;;;75.93;40.42;;;8.00;99.90;;;;;;5002310;28;20038;-52
2021/05/01 08:08:55;;;;;;;;;;;8.10;99.90;;;;;;5006261;28;20030;-56
2021/05/01 08:11:21;;;;;;;68.55;37.47;;;8.10;99.90;;;;;;5000771;28;19924;-52
2021/05/01 08:13:46;;;;;;;;;;;7.90;99.90;;;;;;5003246;28;20092;-55
2021/05/01 08:16:14;;;;;;;138.82;78.32;;;7.80;99.90;;;;;;5006502;28;19917;-56
2021/05/01 08:18:40;;;;;;;72.20;38.35;;;7.90;99.90;;;;;;5007364;28;20038;-57
2021/05/01 08:21:06;;;;;;;;;;;7.90;99.90;;;;;;5008732;28;20037;-54
2021/05/01 08:23:36;;;;;;;74.70;37.22;;;7.90;99.90;;;;;;5006347;28;20406;-53
2021/05/01 08:26:03;;;;;;;80.20;42.25;;;7.90;99.90;;;;;;5008879;28;20438;-53
2021/05/01 08:28:28;;;;;;;94.40;49.47;;;7.90;99.90;;;;;;5007072;28;20046;-55
2021/05/01 08:30:54;;;;;;;;;;;7.90;99.90;;;;;;5007647;28;20049;-57
2021/05/01 08:33:20;;;;;;;76.10;38.58;;;7.90;99.90;;;;;;5008186;28;19921;-54
2021/05/01 08:35:46;;;;;;;77.05;43.70;;;7.90;99.90;;;;;;5007079;28;20049;-56
2021/05/01 08:38:12;;;;;;;;;;;8.10;99.90;;;;;;5008377;28;20114;-53
2021/05/01 08:40:37;;;;;;;67.63;37.40;;;8.20;99.90;;;;;;5030605;28;19940;-51
2021/05/01 08:43:03;;;;;;;;;;;8.40;99.90;;;;;;5008352;28;20657;-55
2021/05/01 08:45:31;;;;;;;63.22;35.30;;;8.70;99.90;;;;;;5004262;28;19925;-56
2021/05/01 08:47:59;;;;;;;70.32;39.35;;;8.90;99.90;;;;;;5005121;28;20041;-52
2021/05/01 08:50:24;;;;;;;69.80;37.17;;;9.20;99.90;;;;;;5007963;28;20053;-54
2021/05/01 08:52:50;;;;;;;;;;;9.40;99.90;;;;;;5007627;28;20034;-55
2021/05/01 08:55:16;;;;;;;71.15;36.20;;;9.40;99.40;;;;;;5007067;28;19921;-54
2021/05/01 08:57:41;;;;;;;;;;;8.90;99.90;;;;;;5006060;28;20132;-56
2021/05/01 09:00:07;;;;;;;61.40;33.85;;;8.80;99.90;;;;;;5006979;28;20054;-56
2021/05/01 09:02:33;;;;;;;61.70;33.90;;;8.80;99.90;;;;;;5007174;28;20048;-54
2021/05/01 09:05:00;;;;;;;;;;;8.80;99.90;;;;;;5007010;28;20038;-52
2021/05/01 09:07:27;;;;;;;54.73;31.00;;;9.00;99.90;;;;;;5007099;28;20008;-53
2021/05/01 09:09:58;;;;;;;54.65;31.65;;;9.00;98.30;;;;;;5007437;28;20129;-55
2021/05/01 09:12:46;;;;;;;63.47;36.20;;;9.00;98.70;;;;;;5006615;28;20595;-56
2021/05/01 09:15:22;;;;;;;70.60;39.95;;;9.30;99.10;;;;;;5005702;28;20081;-54
2021/05/01 09:17:56;;;;;;;52.47;31.10;;;9.50;97.40;;;;;;5007019;28;20072;-57
2021/05/01 09:20:23;;;;;;;52.45;31.40;;;9.60;96.00;;;;;;5005966;28;20045;-57
2021/05/01 09:23:00;;;;;;;45.95;27.67;;;9.70;96.30;;;;;;5006353;28;20045;-54
2021/05/01 09:25:28;;;;;;;48.92;27.02;;;9.70;96.70;;;;;;5003825;28;20042;-52
2021/05/01 09:28:10;;;;;;;46.20;29.27;;;9.70;94.30;;;;;;5006668;28;20045;-54
2021/05/01 09:30:38;;;;;;;51.42;30.73;;;9.80;95.50;;;;;;5006271;28;20034;-55
2021/05/01 09:33:29;;;;;;;47.08;28.08;;;10.10;94.00;;;;;;5006642;28;20804;-54
2021/05/01 09:36:18;;;;;;;44.47;26.40;;;10.30;93.60;;;;;;5006891;28;20041;-57
2021/05/01 09:38:48;;;;;;;48.40;25.50;;;10.40;92.20;;;;;;5006662;28;20041;-51
2021/05/01 09:41:25;;;;;;;43.05;24.02;;;10.50;92.70;;;;;;5005877;28;20038;-53
2021/05/01 09:43:56;;;;;;;42.17;24.63;;;10.30;92.00;;;;;;5006386;28;20132;-56
2021/05/01 09:46:22;;;;;;;43.33;24.85;;;10.20;92.40;;;;;;5005450;28;20067;-57
2021/05/01 09:49:03;;;;;;;;;;;10.10;92.00;;;;;;5007093;28;20469;-55
2021/05/01 09:51:42;;;;;;;41.95;25.75;;;10.10;91.60;;;;;;5004531;28;19921;-52
2021/05/01 09:54:08;;;;;;;40.75;24.42;;;10.20;92.50;;;;;;5006200;28;20053;-55
2021/05/01 09:56:34;;;;;;;45.03;26.00;;;10.50;91.50;;;;;;5006977;28;20044;-51
2021/05/01 09:59:00;;;;;;;;;;;10.60;90.40;;;;;;5006778;28;20033;-57
2021/05/01 10:01:26;;;;;;;40.30;24.73;;;10.90;93.20;;;;;;5005757;28;19918;-52
2021/05/01 10:04:10;;;;;;;39.05;23.95;;;11.20;92.00;;;;;;5006162;28;20444;-57
2021/05/01 10:06:37;;;;;;;43.53;26.08;;;11.60;90.30;;;;;;5006121;28;20125;-56
2021/05/01 10:09:04;;;;;;;41.42;24.65;;;11.50;91.50;;;;;;5002801;28;20071;-53
2021/05/01 10:11:31;;;;;;;45.17;26.02;;;11.20;88.30;;;;;;5004368;28;20058;-56
2021/05/01 10:13:57;;;;;;;43.63;27.50;;;10.90;90.20;;;;;;5005914;28;20535;-52
2021/05/01 10:16:24;;;;;;;41.80;23.48;;;10.70;87.70;;;;;;5003648;28;20108;-54
2021/05/01 10:19:10;;;;;;;39.13;22.85;;;10.50;90.20;;;;;;5005752;28;20065;-53
2021/05/01 10:21:39;;;;;;;44.05;25.70;;;10.50;90.60;;;;;;5005066;28;20286;-52
2021/05/01 10:24:05;;;;;;;43.13;25.92;;;10.50;92.40;;;;;;5003643;28;20124;-56
2021/05/01 10:27:01;;;;;;;47.47;27.80;;;10.30;91.20;;;;;;5005530;28;20050;-54
2021/05/01 10:29:33;;;;;;;48.03;27.10;;;10.10;93.10;;;;;;5003669;28;20053;-52
2021/05/01 10:31:59;;;;;;;53.63;29.70;;;10.00;92.60;;;;;;5003192;28;20064;-56
2021/05/01 10:34:25;;;;;;;;;;;10.10;92.80;;;;;;5005768;28;20663;-49
2021/05/01 10:36:53;;;;;;;63.00;36.10;;;10.00;91.40;;;;;;5006525;28;19928;-56
2021/05/01 10:39:20;;;;;;;52.50;31.33;;;10.00;93.40;;;;;;5003857;28;20343;-59
2021/05/01 10:42:00;;;;;;;59.25;30.02;;;10.00;92.50;;;;;;4998663;28;20042;-58
2021/05/01 10:44:26;;;;;;;76.32;43.58;;;10.00;93.40;;;;;;4998652;28;20046;-54
2021/05/01 10:47:06;;;;;;;;;;;10.20;93.70;;;;;;5004189;28;20068;-58
2021/05/01 10:49:35;;;;;;;50.40;29.75;;;10.50;91.80;;;;;;5004680;28;19928;-57
2021/05/01 10:52:13;;;;;;;52.30;29.58;;;10.70;91.20;;;;;;5003883;28;20633;-52
2021/05/01 10:54:54;;;;;;;52.13;30.67;;;10.80;92.10;;;;;;5003595;28;20045;-56
2021/05/01 10:57:20;;;;;;;54.70;30.15;;;10.70;92.20;;;;;;5004837;28;20045;-52
2021/05/01 10:59:55;;;;;;;;;;;10.60;91.00;;;;;;5004331;28;20117;-49
2021/05/01 11:02:24;;;;;;;51.00;29.40;;;10.70;92.00;;;;;;5004263;28;19956;-53
2021/05/01 11:04:56;;;;;;;53.15;31.35;;;10.60;91.80;;;;;;5004002;28;20056;-54
2021/05/01 11:07:27;;;;;;;53.70;29.65;;;10.60;91.30;;;;;;5005215;28;20049;-54
2021/05/01 11:10:03;;;;;;;50.72;30.40;;;10.50;91.70;;;;;;5004991;28;20528;-55
2021/05/01 11:12:33;;;;;;;58.53;31.77;;;10.20;90.90;;;;;;5003171;28;20122;-55
2021/05/01 11:15:10;;;;;;;56.25;32.38;;;10.10;91.20;;;;;;5005133;28;20034;-54
2021/05/01 11:17:43;;;;;;;75.25;44.08;;;9.90;91.60;;;;;;5003730;28;20148;-52
2021/05/01 11:20:12;;;;;;;58.15;31.88;;;10.00;92.20;;;;;;5004889;28;20150;-57
2021/05/01 11:22:44;;;;;;;55.10;32.20;;;9.80;91.70;;;;;;5003961;28;20067;-52
2021/05/01 11:25:12;;;;;;;54.53;30.30;;;9.80;92.70;;;;;;5003676;28;20037;-53
2021/05/01 11:27:40;;;;;;;54.45;31.63;;;9.80;92.00;;;;;;5003941;28;20045;-51
2021/05/01 11:30:06;;;;;;;52.58;30.73;;;9.60;92.10;;;;;;4997188;28;20046;-58
2021/05/01 11:32:32;;;;;;;47.80;28.60;;;9.70;92.70;;;;;;5002076;28;20042;-50
2021/05/01 11:35:01;;;;;;;;;;;9.80;92.30;;;;;;5003691;28;20046;-52
2021/05/01 11:37:29;;;;;;;52.17;27.33;;;9.90;92.50;;;;;;5002770;28;19932;-53
2021/05/01 11:39:59;;;;;;;54.55;32.13;;;10.00;92.10;;;;;;5004615;28;20405;-55
2021/05/01 11:42:28;;;;;;;51.25;29.75;;;10.20;93.00;;;;;;5005530;28;20038;-57
2021/05/01 11:44:55;;;;;;;51.88;29.65;;;10.40;92.00;;;;;;5008117;28;20053;-56
2021/05/01 11:47:26;;;;;;;55.80;31.92;;;10.20;92.60;;;;;;5007623;28;20041;-58
2021/05/01 11:49:56;;;;;;;58.17;31.70;;;10.00;92.20;;;;;;5008453;28;20056;-54
2021/05/01 11:52:56;;;;;;;56.35;31.10;;;9.90;92.80;;;;;;5007488;28;20042;-57
2021/05/01 11:55:29;;;;;;;69.78;37.30;;;9.90;93.30;;;;;;5007422;28;20049;-58
2021/05/01 11:58:02;;;;;;;73.43;41.15;;;9.60;94.40;;;;;;5007803;28;20116;-50
2021/05/01 12:00:34;;;;;;;78.75;43.50;;;9.30;96.00;;;;;;5006092;28;20041;-55
2021/05/01 12:03:21;;;;;;;81.60;43.75;;;9.10;97.60;;;;;;5007861;28;20056;-56
2021/05/01 12:05:53;;;;;;;77.47;42.70;;;9.10;98.10;;;;;;5009128;28;20045;-55
2021/05/01 12:08:22;;;;;;;81.55;42.42;;;9.10;98.80;;;;;;5008774;28;20061;-57
2021/05/01 12:10:54;;;;;;;81.35;43.75;;;9.20;98.60;;;;;;5008513;28;20073;-54
2021/05/01 12:13:30;;;;;;;75.40;41.72;;;9.20;97.90;;;;;;5007983;28;20042;-53
2021/05/01 12:15:59;;;;;;;;;;;9.20;98.00;;;;;;5014250;28;20048;-54
2021/05/01 12:18:51;;;;;;;75.47;44.00;;;9.30;97.60;;;;;;5029441;28;19996;-58
2021/05/01 12:21:18;;;;;;;65.78;36.95;;;9.50;97.90;;;;;;5026277;28;20053;-56
2021/05/01 12:23:48;;;;;;;67.05;38.15;;;9.40;96.10;;;;;;5027674;28;20523;-56
2021/05/01 12:26:32;;;;;;;69.97;40.42;;;9.40;96.40;;;;;;5027393;28;20124;-56
2021/05/01 12:29:21;;;;;;;72.03;38.92;;;9.40;97.50;;;;;;5025639;28;20041;-58
2021/05/01 12:31:50;;;;;;;67.78;38.72;;;9.30;97.10;;;;;;5028496;28;20553;-56
2021/05/01 12:34:20;;;;;;;73.93;38.75;;;9.40;97.30;;;;;;5027857;28;20038;-59
2021/05/01 12:36:49;;;;;;;66.80;38.25;;;9.50;96.70;;;;;;5027426;28;20045;-54
2021/05/01 12:39:16;;;;;;;61.97;35.00;;;9.50;96.10;;;;;;5027495;28;20053;-54
2021/05/01 12:41:47;;;;;;;64.85;34.00;;;9.50;95.60;;;;;;5027261;28;20041;-54
2021/05/01 12:44:44;;;;;;;71.47;36.97;;;9.50;95.00;;;;;;5027957;28;20516;-52
2021/05/01 12:47:10;;;;;;;56.25;31.95;;;9.50;95.20;;;;;;5010432;28;20054;-53
2021/05/01 12:49:35;;;;;;;;;;;9.60;94.70;;;;;;5007959;28;20052;-55
2021/05/01 12:52:21;;;;;;;61.85;32.25;;;9.60;95.00;;;;;;5007780;28;19921;-55
2021/05/01 12:54:57;;;;;;;59.05;33.08;;;9.70;94.80;;;;;;5005770;28;20038;-54
2021/05/01 12:57:31;;;;;;;65.93;35.63;;;9.80;96.00;;;;;;5007654;28;20045;-57
2021/05/01 12:59:56;;;;;;;61.30;34.22;;;9.90;96.00;;;;;;5007579;28;20046;-52
2021/05/01 13:02:23;;;;;;;;;;;9.90;96.10;;;;;;5007734;28;20059;-51
2021/05/01 13:05:08;;;;;;;69.43;39.40;;;9.80;95.50;;;;;;5006864;28;20429;-50
2021/05/01 13:07:37;;;;;;;70.88;38.38;;;9.80;95.50;;;;;;5007142;28;20049;-58
2021/05/01 13:10:04;;;;;;;74.60;39.30;;;9.70;96.20;;;;;;5007899;28;20103;-52